createdAt,value
2019-05-06T00:00:26.534Z,88.50
2019-05-06T00:02:55.970Z,88.30
2019-05-06T00:05:26.202Z,88.70
2019-05-06T00:07:55.558Z,88.60
2019-05-06T00:10:34.122Z,88.30
2019-05-06T00:13:04.960Z,88.40
2019-05-06T00:15:34.638Z,88.60
2019-05-06T00:18:05.261Z,89.10
2019-05-06T00:20:35.147Z,89.60
2019-05-06T00:23:06.358Z,89.50
2019-05-06T00:25:37.553Z,89.20
2019-05-06T00:28:24.527Z,89.20
2019-05-06T00:31:15.929Z,89.30
2019-05-06T00:33:44.384Z,89.80
2019-05-06T00:36:14.148Z,90.30
2019-05-06T00:38:45.386Z,90.60
2019-05-06T00:41:25.501Z,90.90
2019-05-06T00:43:54.846Z,91.30
2019-05-06T00:46:24.387Z,91.30
2019-05-06T00:48:54.836Z,91.40
2019-05-06T00:51:24.508Z,91.80
2019-05-06T00:53:58.657Z,92.30
2019-05-06T00:56:27.926Z,91.90
2019-05-06T00:58:57.453Z,91.90
2019-05-06T01:01:29.643Z,92.00
2019-05-06T01:03:57.702Z,92.20
2019-05-06T01:06:27.293Z,92.30
2019-05-06T01:08:56.574Z,92.00
2019-05-06T01:11:26.101Z,91.60
2019-05-06T01:13:59.722Z,92.00
2019-05-06T01:16:28.993Z,92.50
2019-05-06T01:18:58.506Z,92.60
2019-05-06T01:21:27.773Z,92.20
2019-05-06T01:23:57.055Z,92.30
2019-05-06T01:26:26.321Z,92.10
2019-05-06T01:28:55.600Z,91.80
2019-05-06T01:31:39.527Z,91.80
2019-05-06T01:33:56.017Z,92.10
2019-05-06T01:36:25.669Z,91.90
2019-05-06T01:38:56.573Z,92.00
2019-05-06T01:41:45.049Z,91.60
2019-05-06T01:44:14.329Z,91.90
2019-05-06T01:46:44.747Z,92.00
2019-05-06T01:49:14.288Z,93.10
2019-05-06T01:51:43.866Z,93.00
2019-05-06T01:54:14.206Z,93.40
2019-05-06T01:56:44.499Z,94.20
2019-05-06T01:59:14.949Z,93.90
2019-05-06T02:01:57.361Z,93.70
2019-05-06T02:04:15.268Z,93.70
2019-05-06T02:06:44.545Z,93.30
2019-05-06T02:09:15.550Z,93.00
2019-05-06T02:11:47.888Z,92.80
2019-05-06T02:14:16.430Z,93.00
2019-05-06T02:16:46.021Z,92.60
2019-05-06T02:19:15.625Z,92.60
2019-05-06T02:21:46.877Z,92.80
2019-05-06T02:24:35.768Z,92.70
2019-05-06T02:27:05.817Z,92.80
2019-05-06T02:29:48.660Z,93.20
2019-05-06T02:32:31.623Z,94.60
2019-05-06T02:35:05.236Z,94.00
2019-05-06T02:37:39.205Z,93.80
2019-05-06T02:40:24.814Z,93.90
2019-05-06T02:42:54.534Z,93.80
2019-05-06T02:45:24.226Z,93.60
2019-05-06T02:47:58.098Z,93.50
2019-05-06T02:50:47.245Z,93.60
2019-05-06T02:53:18.166Z,93.50
2019-05-06T02:55:47.448Z,93.30
2019-05-06T02:58:16.718Z,93.60
2019-05-06T03:00:46.947Z,93.60
2019-05-06T03:03:17.185Z,93.60
2019-05-06T03:05:46.474Z,93.10
2019-05-06T03:08:15.744Z,93.40
2019-05-06T03:10:45.007Z,93.00
2019-05-06T03:13:14.554Z,93.10
2019-05-06T03:15:44.403Z,93.30
2019-05-06T03:18:15.107Z,93.10
2019-05-06T03:20:53.153Z,93.30
2019-05-06T03:23:23.644Z,93.60
2019-05-06T03:25:53.608Z,93.60
2019-05-06T03:28:24.002Z,93.20
2019-05-06T03:30:56.723Z,93.40
2019-05-06T03:33:47.485Z,94.10
2019-05-06T03:36:07.165Z,94.10
2019-05-06T03:38:26.964Z,94.20
2019-05-06T03:40:56.230Z,94.50
2019-05-06T03:43:25.515Z,94.90
2019-05-06T03:46:04.304Z,94.00
2019-05-06T03:48:43.927Z,94.60
2019-05-06T03:51:13.521Z,94.60
2019-05-06T03:53:43.990Z,94.60
2019-05-06T03:56:18.844Z,94.50
2019-05-06T03:58:45.028Z,94.40
2019-05-06T04:01:16.524Z,94.00
2019-05-06T04:03:52.265Z,95.50
2019-05-06T04:06:18.329Z,95.70
2019-05-06T04:08:49.243Z,95.60
2019-05-06T04:11:18.522Z,96.30
2019-05-06T04:13:49.245Z,97.00
2019-05-06T04:16:23.418Z,96.70
2019-05-06T04:18:54.610Z,96.50
2019-05-06T04:21:43.604Z,96.20
2019-05-06T04:24:15.113Z,96.60
2019-05-06T04:26:46.720Z,96.40
2019-05-06T04:29:16.190Z,96.50
2019-05-06T04:31:45.964Z,96.60
2019-05-06T04:34:19.452Z,97.00
2019-05-06T04:36:46.630Z,96.70
2019-05-06T04:39:15.960Z,96.60
2019-05-06T04:41:45.477Z,96.00
2019-05-06T04:44:14.822Z,96.10
2019-05-06T04:46:44.576Z,97.00
2019-05-06T04:49:15.028Z,97.00
2019-05-06T04:51:45.645Z,97.50
2019-05-06T04:54:15.002Z,98.00
2019-05-06T04:56:44.443Z,98.70
2019-05-06T04:59:14.134Z,98.90
2019-05-06T05:01:45.481Z,98.80
2019-05-06T05:04:28.518Z,99.10
2019-05-06T05:06:46.412Z,99.60
2019-05-06T05:09:17.456Z,99.70
2019-05-06T05:11:49.066Z,99.70
2019-05-06T05:14:25.364Z,99.70
2019-05-06T05:16:58.525Z,99.90
2019-05-06T05:19:29.445Z,99.90
2019-05-06T05:22:07.256Z,99.90
2019-05-06T05:24:37.309Z,99.90
2019-05-06T05:27:07.552Z,99.10
2019-05-06T05:29:36.897Z,99.10
2019-05-06T05:32:07.469Z,98.50
2019-05-06T05:34:40.409Z,98.30
2019-05-06T05:37:07.793Z,98.10
2019-05-06T05:39:37.081Z,98.30
2019-05-06T05:42:07.989Z,97.40
2019-05-06T05:44:43.126Z,97.70
2019-05-06T05:47:12.666Z,97.60
2019-05-06T05:49:59.021Z,97.80
2019-05-06T05:52:28.292Z,97.90
2019-05-06T05:54:57.817Z,98.20
2019-05-06T05:57:27.343Z,98.40
2019-05-06T06:00:09.034Z,97.60
2019-05-06T06:02:38.308Z,97.60
2019-05-06T06:05:08.214Z,97.90
2019-05-06T06:07:37.729Z,97.10
2019-05-06T06:10:13.271Z,97.50
2019-05-06T06:12:43.110Z,96.80
2019-05-06T06:15:22.314Z,96.00
2019-05-06T06:17:53.177Z,96.40
2019-05-06T06:20:42.293Z,95.50
2019-05-06T06:23:13.529Z,95.80
2019-05-06T06:25:43.452Z,95.20
2019-05-06T06:28:12.726Z,95.30
2019-05-06T06:31:02.977Z,94.90
2019-05-06T06:33:33.505Z,95.40
2019-05-06T06:36:22.930Z,95.30
2019-05-06T06:38:56.006Z,96.30
2019-05-06T06:41:25.361Z,95.20
2019-05-06T06:43:56.513Z,94.80
2019-05-06T06:46:26.131Z,95.40
2019-05-06T06:48:55.413Z,95.90
2019-05-06T06:51:25.236Z,95.80
2019-05-06T06:53:54.841Z,95.40
2019-05-06T06:56:32.964Z,95.40
2019-05-06T06:59:04.345Z,95.30
2019-05-06T07:01:35.345Z,93.50
2019-05-06T07:04:10.414Z,93.60
2019-05-06T07:06:42.385Z,92.30
2019-05-06T07:09:12.571Z,92.40
2019-05-06T07:11:42.868Z,96.60
2019-05-06T07:14:13.716Z,84.90
2019-05-06T07:16:43.233Z,85.20
2019-05-06T07:19:14.521Z,86.10
2019-05-06T07:21:48.897Z,87.60
2019-05-06T07:24:18.180Z,87.90
2019-05-06T07:26:49.109Z,87.90
2019-05-06T07:29:23.339Z,88.10
2019-05-06T07:31:49.378Z,88.60
2019-05-06T07:34:18.981Z,88.30
2019-05-06T07:36:48.593Z,88.10
2019-05-06T07:39:17.876Z,89.10
2019-05-06T07:41:55.005Z,88.70
2019-05-06T07:44:25.934Z,88.90
2019-05-06T07:46:59.622Z,88.40
2019-05-06T07:49:29.300Z,88.50
2019-05-06T07:51:58.840Z,87.90
2019-05-06T07:54:28.446Z,88.80
2019-05-06T07:56:57.740Z,88.60
2019-05-06T07:59:27.349Z,86.80
2019-05-06T08:01:56.967Z,86.40
2019-05-06T08:04:26.245Z,87.30
2019-05-06T08:06:55.529Z,86.70
2019-05-06T08:09:24.883Z,85.80
2019-05-06T08:11:54.466Z,85.90
2019-05-06T08:14:25.453Z,85.60
2019-05-06T08:16:56.393Z,85.90
2019-05-06T08:19:25.749Z,85.20
2019-05-06T08:21:56.695Z,85.30
2019-05-06T08:24:25.981Z,84.50
2019-05-06T08:26:55.253Z,84.40
2019-05-06T08:29:24.593Z,85.60
2019-05-06T08:31:54.103Z,85.00
2019-05-06T08:34:23.393Z,84.40
2019-05-06T08:37:06.665Z,85.40
2019-05-06T08:39:35.958Z,85.30
2019-05-06T08:42:05.404Z,86.00
2019-05-06T08:44:34.668Z,86.60
2019-05-06T08:47:03.945Z,87.60
2019-05-06T08:49:34.872Z,87.70
2019-05-06T08:52:05.862Z,86.50
2019-05-06T08:54:39.746Z,86.30
2019-05-06T08:57:09.030Z,85.80
2019-05-06T08:59:38.322Z,86.50
2019-05-06T09:02:08.478Z,86.30
2019-05-06T09:04:38.058Z,86.30
2019-05-06T09:07:07.658Z,84.70
2019-05-06T09:09:36.950Z,85.20
2019-05-06T09:12:06.289Z,84.30
2019-05-06T09:14:35.870Z,83.30
2019-05-06T09:17:06.105Z,82.70
2019-05-06T09:19:35.394Z,80.10
2019-05-06T09:22:04.740Z,80.30
2019-05-06T09:24:34.025Z,80.10
2019-05-06T09:27:04.946Z,78.60
2019-05-06T09:29:42.943Z,78.70
2019-05-06T09:32:14.190Z,77.40
2019-05-06T09:34:45.134Z,77.40
2019-05-06T09:37:15.484Z,76.70
2019-05-06T09:39:46.118Z,76.60
2019-05-06T09:42:16.201Z,74.80
2019-05-06T09:44:50.296Z,73.50
2019-05-06T09:47:33.033Z,73.30
2019-05-06T09:50:02.903Z,74.80
2019-05-06T09:52:33.287Z,77.10
2019-05-06T09:55:04.826Z,76.90
2019-05-06T09:57:35.811Z,75.30
2019-05-06T10:00:06.880Z,76.40
2019-05-06T10:02:37.892Z,77.10
2019-05-06T10:05:07.149Z,76.90
2019-05-06T10:07:36.777Z,75.90
2019-05-06T10:10:06.697Z,75.40
2019-05-06T10:12:36.052Z,75.50
2019-05-06T10:15:06.195Z,75.50
2019-05-06T10:17:36.146Z,74.20
2019-05-06T10:20:06.366Z,74.10
2019-05-06T10:22:36.621Z,73.80
2019-05-06T10:25:06.474Z,74.80
2019-05-06T10:27:37.226Z,75.70
2019-05-06T10:30:12.375Z,76.80
2019-05-06T10:32:45.670Z,79.10
2019-05-06T10:35:15.594Z,81.40
2019-05-06T10:38:02.825Z,81.60
2019-05-06T10:40:34.568Z,81.00
2019-05-06T10:43:06.929Z,83.50
2019-05-06T10:45:36.208Z,83.70
2019-05-06T10:48:05.552Z,80.90
2019-05-06T10:50:36.638Z,79.20
2019-05-06T10:53:07.798Z,82.00
2019-05-06T10:55:38.709Z,81.00
2019-05-06T10:58:07.990Z,82.00
2019-05-06T11:00:37.330Z,81.20
2019-05-06T11:03:14.956Z,80.60
2019-05-06T11:05:44.746Z,81.90
2019-05-06T11:08:14.295Z,80.90
2019-05-06T11:10:45.286Z,80.60
2019-05-06T11:13:15.351Z,79.00
2019-05-06T11:15:44.893Z,79.30
2019-05-06T11:18:14.447Z,80.40
2019-05-06T11:20:44.239Z,79.90
2019-05-06T11:23:14.212Z,80.20
2019-05-06T11:25:43.942Z,79.40
2019-05-06T11:28:34.901Z,79.00
2019-05-06T11:31:22.821Z,78.60
2019-05-06T11:33:55.953Z,79.60
2019-05-06T11:36:27.147Z,81.80
2019-05-06T11:38:56.754Z,82.40
2019-05-06T11:41:26.030Z,85.30
2019-05-06T11:43:55.565Z,83.50
2019-05-06T11:46:24.841Z,81.60
2019-05-06T11:48:54.289Z,81.90
2019-05-06T11:51:25.205Z,83.70
2019-05-06T11:53:54.485Z,84.10
2019-05-06T11:56:23.757Z,85.00
2019-05-06T11:58:54.953Z,84.80
2019-05-06T12:01:29.032Z,84.40
2019-05-06T12:03:58.477Z,85.90
2019-05-06T12:06:27.759Z,86.50
2019-05-06T12:08:57.041Z,87.40
2019-05-06T12:11:26.551Z,86.50
2019-05-06T12:13:55.830Z,87.10
2019-05-06T12:16:26.050Z,85.60
2019-05-06T12:18:55.799Z,88.10
2019-05-06T12:21:25.318Z,87.00
2019-05-06T12:23:54.767Z,87.90
2019-05-06T12:26:24.051Z,87.20
2019-05-06T12:28:53.466Z,85.40
2019-05-06T12:31:24.049Z,85.40
2019-05-06T12:33:53.598Z,85.90
2019-05-06T12:36:23.448Z,85.90
2019-05-06T12:39:16.308Z,84.10
2019-05-06T12:41:48.425Z,83.30
2019-05-06T12:44:17.715Z,80.90
2019-05-06T12:47:04.822Z,80.10
2019-05-06T12:49:34.108Z,79.20
2019-05-06T12:52:03.422Z,77.90
2019-05-06T12:54:33.652Z,77.20
2019-05-06T12:57:03.538Z,76.80
2019-05-06T12:59:33.919Z,75.30
2019-05-06T13:02:03.199Z,75.10
2019-05-06T13:04:49.738Z,75.30
2019-05-06T13:07:03.956Z,75.50
2019-05-06T13:09:33.373Z,75.80
2019-05-06T13:12:03.699Z,75.40
2019-05-06T13:14:37.053Z,74.00
2019-05-06T13:17:07.812Z,72.10
2019-05-06T13:19:37.085Z,71.60
2019-05-06T13:22:07.528Z,72.50
2019-05-06T13:24:37.423Z,72.00
2019-05-06T13:27:09.735Z,73.10
2019-05-06T13:29:39.306Z,72.30
2019-05-06T13:32:12.791Z,72.00
2019-05-06T13:34:44.278Z,73.10
2019-05-06T13:37:14.086Z,73.10
2019-05-06T13:39:44.211Z,71.90
2019-05-06T13:42:16.310Z,71.90
2019-05-06T13:44:49.610Z,71.90
2019-05-06T13:47:43.177Z,70.50
2019-05-06T13:50:16.260Z,71.40
2019-05-06T13:53:06.549Z,71.10
2019-05-06T13:55:22.062Z,71.30
2019-05-06T13:57:53.703Z,71.80
2019-05-06T14:00:24.653Z,71.50
2019-05-06T14:02:58.819Z,71.60
2019-05-06T14:05:33.077Z,72.50
2019-05-06T14:08:09.147Z,72.10
2019-05-06T14:10:43.551Z,72.30
2019-05-06T14:13:14.836Z,73.00
2019-05-06T14:15:52.653Z,72.40
2019-05-06T14:18:24.850Z,72.10
2019-05-06T14:20:56.944Z,72.20
2019-05-06T14:23:34.272Z,71.90
2019-05-06T14:26:17.193Z,72.90
2019-05-06T14:28:56.786Z,72.40
2019-05-06T14:31:32.526Z,72.20
2019-05-06T14:34:05.033Z,71.40
2019-05-06T14:36:40.079Z,71.50
2019-05-06T14:39:14.579Z,71.20
2019-05-06T14:41:55.595Z,71.60
2019-05-06T14:44:26.084Z,71.30
2019-05-06T14:47:00.313Z,71.90
2019-05-06T14:49:35.689Z,69.60
2019-05-06T14:52:08.116Z,70.80
2019-05-06T14:54:52.964Z,70.70
2019-05-06T14:57:23.041Z,69.80
2019-05-06T14:59:56.124Z,70.00
2019-05-06T15:02:27.452Z,69.60
2019-05-06T15:05:02.972Z,70.90
2019-05-06T15:07:33.117Z,70.40
2019-05-06T15:10:19.279Z,70.60
2019-05-06T15:12:38.710Z,71.60
2019-05-06T15:15:12.223Z,70.00
2019-05-06T15:17:45.325Z,70.70
2019-05-06T15:20:17.274Z,71.20
2019-05-06T15:22:53.275Z,71.80
2019-05-06T15:25:23.860Z,70.90
2019-05-06T15:28:02.380Z,69.20
2019-05-06T15:30:45.216Z,70.90
2019-05-06T15:33:22.677Z,71.80
2019-05-06T15:36:12.699Z,71.20
2019-05-06T15:38:46.826Z,71.10
2019-05-06T15:41:22.205Z,69.40
2019-05-06T15:43:53.752Z,69.90
2019-05-06T15:46:27.849Z,70.60
2019-05-06T15:48:57.439Z,71.10
2019-05-06T15:51:36.519Z,73.00
2019-05-06T15:54:11.307Z,74.20
2019-05-06T15:56:42.257Z,75.40
2019-05-06T15:59:12.311Z,75.90
2019-05-06T16:01:46.770Z,76.80
2019-05-06T16:04:23.852Z,78.00
2019-05-06T16:06:56.271Z,80.00
2019-05-06T16:09:26.099Z,79.20
2019-05-06T16:11:56.045Z,79.30
2019-05-06T16:14:25.932Z,79.50
2019-05-06T16:16:56.363Z,80.40
2019-05-06T16:19:27.347Z,80.20
2019-05-06T16:21:57.565Z,81.30
2019-05-06T16:24:35.426Z,81.60
2019-05-06T16:27:15.768Z,83.90
2019-05-06T16:29:47.450Z,87.20
2019-05-06T16:32:21.929Z,87.80
2019-05-06T16:34:52.437Z,89.80
2019-05-06T16:37:22.876Z,91.10
2019-05-06T16:39:54.667Z,91.60
2019-05-06T16:42:28.404Z,92.10
2019-05-06T16:44:59.735Z,93.00
2019-05-06T16:47:44.217Z,91.90
2019-05-06T16:50:22.557Z,92.40
2019-05-06T16:53:04.089Z,93.10
2019-05-06T16:55:46.119Z,93.40
2019-05-06T16:58:32.806Z,92.70
2019-05-06T17:01:06.451Z,93.20
2019-05-06T17:03:42.853Z,93.10
2019-05-06T17:06:25.921Z,93.90
2019-05-06T17:08:55.437Z,94.30
2019-05-06T17:11:30.409Z,93.80
2019-05-06T17:13:57.057Z,93.10
2019-05-06T17:16:28.425Z,93.40
2019-05-06T17:19:03.417Z,93.80
2019-05-06T17:21:35.231Z,94.30
2019-05-06T17:24:12.865Z,94.10
2019-05-06T17:26:42.861Z,93.80
2019-05-06T17:29:22.676Z,93.90
2019-05-06T17:32:11.872Z,95.60
2019-05-06T17:34:43.292Z,94.80
2019-05-06T17:37:15.674Z,94.80
2019-05-06T17:39:46.045Z,94.40
2019-05-06T17:42:17.530Z,94.20
2019-05-06T17:44:50.200Z,95.70
2019-05-06T17:50:15.443Z,93.30
2019-05-06T17:52:45.829Z,92.80
2019-05-06T17:55:22.040Z,93.70
2019-05-06T17:57:52.882Z,94.80
2019-05-06T18:00:24.491Z,95.00
2019-05-06T18:02:57.751Z,95.00
2019-05-06T18:05:28.030Z,95.30
2019-05-06T18:08:02.838Z,96.20
2019-05-06T18:10:35.493Z,96.00
2019-05-06T18:13:09.160Z,97.40
2019-05-06T18:15:50.436Z,97.70
2019-05-06T18:18:29.006Z,97.90
2019-05-06T18:20:59.734Z,98.10
2019-05-06T18:23:33.613Z,98.60
2019-05-06T18:26:05.855Z,98.60
2019-05-06T18:28:37.441Z,98.90
2019-05-06T18:31:12.500Z,99.20
2019-05-06T18:33:47.131Z,99.50
2019-05-06T18:36:23.753Z,99.90
2019-05-06T18:38:58.060Z,99.90
2019-05-06T18:41:29.392Z,99.40
2019-05-06T18:44:04.914Z,97.80
2019-05-06T18:46:41.894Z,97.70
2019-05-06T18:49:17.671Z,97.50
2019-05-06T18:51:55.653Z,96.30
2019-05-06T18:54:27.126Z,95.10
2019-05-06T18:57:02.036Z,95.60
2019-05-06T18:59:39.487Z,96.10
2019-05-06T19:02:13.183Z,95.40
2019-05-06T19:04:52.267Z,95.70
2019-05-06T19:07:33.433Z,96.30
2019-05-06T19:10:08.244Z,96.80
2019-05-06T19:12:44.929Z,97.30
2019-05-06T19:15:17.024Z,97.60
2019-05-06T19:17:52.484Z,97.60
2019-05-06T19:20:24.398Z,95.90
2019-05-06T19:22:55.869Z,97.20
2019-05-06T19:25:34.627Z,97.20
2019-05-06T19:28:05.167Z,97.10
2019-05-06T19:30:37.546Z,97.30
2019-05-06T19:33:14.881Z,97.50
2019-05-06T19:35:52.914Z,97.80
2019-05-06T19:38:28.541Z,96.90
2019-05-06T19:41:02.077Z,96.80
2019-05-06T19:43:37.588Z,97.00
2019-05-06T19:46:12.125Z,97.20
2019-05-06T19:48:45.291Z,96.70
2019-05-06T19:51:17.433Z,97.20
2019-05-06T19:53:49.159Z,97.30
2019-05-06T19:56:23.224Z,98.00
2019-05-06T19:59:03.247Z,98.60
2019-05-06T20:01:34.623Z,97.80
2019-05-06T20:04:08.107Z,98.20
2019-05-06T20:06:45.409Z,98.20
2019-05-06T20:09:25.692Z,97.60
2019-05-06T20:11:57.421Z,98.00
2019-05-06T20:14:29.694Z,97.60
2019-05-06T20:16:59.909Z,97.40
2019-05-06T20:19:31.198Z,98.00
2019-05-06T20:22:03.867Z,97.50
2019-05-06T20:24:36.272Z,97.60
2019-05-06T20:27:05.436Z,98.00
2019-05-06T20:29:36.864Z,97.50
2019-05-06T20:32:05.776Z,97.80
2019-05-06T20:34:35.357Z,97.70
2019-05-06T20:37:04.637Z,97.70
2019-05-06T20:39:33.924Z,98.00
2019-05-06T20:42:03.203Z,98.00
2019-05-06T20:44:32.617Z,98.20
2019-05-06T20:47:03.070Z,98.10
2019-05-06T20:49:33.299Z,98.20
2019-05-06T20:52:02.673Z,97.70
2019-05-06T20:54:32.544Z,97.90
2019-05-06T20:57:02.561Z,97.90
2019-05-06T20:59:32.340Z,98.30
2019-05-06T21:02:03.178Z,98.50
2019-05-06T21:04:32.599Z,97.60
2019-05-06T21:07:02.804Z,97.80
2019-05-06T21:09:32.184Z,97.80
2019-05-06T21:12:01.444Z,98.50
2019-05-06T21:14:32.348Z,98.40
2019-05-06T21:17:02.497Z,98.30
2019-05-06T21:19:33.102Z,98.80
2019-05-06T21:22:02.647Z,98.80
2019-05-06T21:24:33.289Z,98.60
2019-05-06T21:27:03.135Z,98.20
2019-05-06T21:29:32.714Z,99.40
2019-05-06T21:32:02.704Z,98.80
2019-05-06T21:34:33.129Z,99.50
2019-05-06T21:37:02.937Z,99.30
2019-05-06T21:39:32.874Z,99.70
2019-05-06T21:42:02.325Z,99.50
2019-05-06T21:44:32.421Z,98.60
2019-05-06T21:47:02.933Z,99.00
2019-05-06T21:49:32.785Z,99.30
2019-05-06T21:52:03.318Z,99.10
2019-05-06T21:54:32.946Z,99.00
2019-05-06T21:57:02.878Z,98.80
2019-05-06T21:59:32.451Z,99.90
2019-05-06T22:02:01.797Z,99.30
2019-05-06T22:04:32.724Z,99.40
2019-05-06T22:07:03.019Z,99.20
2019-05-06T22:09:33.377Z,99.90
2019-05-06T22:12:02.650Z,99.90
2019-05-06T22:14:32.582Z,99.90
2019-05-06T22:17:04.129Z,99.60
2019-05-06T22:19:33.187Z,99.60
2019-05-06T22:22:05.538Z,99.50
2019-05-06T22:24:39.266Z,99.90
2019-05-06T22:27:08.547Z,99.90
2019-05-06T22:29:37.826Z,99.90
2019-05-06T22:32:07.115Z,99.90
2019-05-06T22:34:36.389Z,99.90
2019-05-06T22:37:05.666Z,99.90
2019-05-06T22:39:35.013Z,99.90
2019-05-06T22:42:04.535Z,99.90
2019-05-06T22:44:34.037Z,99.90
2019-05-06T22:47:03.386Z,99.90
2019-05-06T22:49:32.657Z,99.90
2019-05-06T22:52:02.918Z,99.90
2019-05-06T22:54:32.569Z,99.90
2019-05-06T22:57:02.424Z,99.90
2019-05-06T22:59:33.113Z,99.80
2019-05-06T23:02:06.944Z,99.60
2019-05-06T23:04:43.922Z,99.90
2019-05-06T23:07:14.221Z,99.90
2019-05-06T23:09:43.881Z,99.90
2019-05-06T23:12:13.171Z,99.90
2019-05-06T23:14:42.440Z,99.90
2019-05-06T23:17:12.686Z,99.90
2019-05-06T23:19:42.797Z,99.90
2019-05-06T23:22:13.215Z,99.90
2019-05-06T23:24:42.485Z,99.90
2019-05-06T23:27:12.656Z,99.90
2019-05-06T23:29:42.529Z,99.90
2019-05-06T23:32:14.056Z,99.90
2019-05-06T23:34:43.433Z,99.90
2019-05-06T23:37:17.263Z,99.90
2019-05-06T23:40:22.758Z,99.90
2019-05-06T23:43:27.934Z,99.90
2019-05-06T23:46:33.409Z,99.90
2019-05-06T23:49:38.797Z,99.90
2019-05-06T23:52:44.035Z,99.90
2019-05-06T23:55:49.110Z,99.90
2019-05-06T23:58:17.544Z,99.90
